Time;durP1;ratioP1;P1;durP2;ratioP2;P2;SDS_P1;SDS_P2;PMS_P1;PMS_P2;Temp;Humidity;BMP_temperature;BMP_pressure;BME280_temperature;BME280_humidity;BME280_pressure;Samples;Min_cycle;Max_cycle;Signal;HPM_P1;HPM_P2
2022/05/17 00:00:39;;;;;;;20.20;11.10;;;;;;;14.96;73.90;101880.81;5073802;28;20086;-65
2022/05/17 00:03:04;;;;;;;18.10;10.50;;;;;;;14.89;74.05;101875.66;5073798;28;20023;-66
2022/05/17 00:05:30;;;;;;;18.70;11.35;;;;;;;14.86;74.12;101881.03;5073916;28;20086;-65
2022/05/17 00:07:55;;;;;;;19.65;10.63;;;;;;;14.71;74.44;101882.16;5073446;28;20029;-65
2022/05/17 00:10:24;;;;;;;20.25;10.88;;;;;;;14.74;74.90;101889.91;5074070;28;20390;-66
2022/05/17 00:12:50;;;;;;;17.67;10.40;;;;;;;14.67;75.43;101890.31;5074693;28;20024;-66
2022/05/17 00:15:17;;;;;;;19.85;10.82;;;;;;;14.57;75.82;101885.75;5073669;28;20028;-67
2022/05/17 00:17:42;;;;;;;19.65;11.02;;;;;;;14.60;75.56;101887.06;5074026;28;20089;-65
2022/05/17 00:20:08;;;;;;;19.95;10.98;;;;;;;14.56;76.18;101880.47;5074043;28;20028;-65
2022/05/17 00:22:34;;;;;;;19.95;11.57;;;;;;;14.58;76.24;101881.00;5074566;28;20127;-65
2022/05/17 00:25:00;;;;;;;20.35;11.73;;;;;;;14.52;76.21;101874.69;5074230;28;20056;-65
2022/05/17 00:27:25;;;;;;;20.42;11.90;;;;;;;14.48;76.44;101873.66;5072540;28;20342;-65
2022/05/17 00:29:50;;;;;;;21.55;11.68;;;;;;;14.45;76.60;101871.50;5074398;28;20025;-65
2022/05/17 00:32:16;;;;;;;19.60;11.52;;;;;;;14.43;76.51;101873.75;5074171;28;20031;-65
2022/05/17 00:34:41;;;;;;;20.45;11.30;;;;;;;14.39;76.72;101876.31;5074108;28;20095;-65
2022/05/17 00:37:06;;;;;;;20.08;12.00;;;;;;;14.33;77.47;101867.25;5073766;28;20025;-65
2022/05/17 00:39:32;;;;;;;19.48;11.57;;;;;;;14.31;77.25;101858.38;5074476;28;20048;-66
2022/05/17 00:41:58;;;;;;;19.50;11.85;;;;;;;14.31;77.43;101871.47;5074356;28;20372;-66
2022/05/17 00:47:13;;;;;;;18.75;11.25;;;;;;;14.32;77.11;101871.16;5073906;28;20040;-66
2022/05/17 00:49:42;;;;;;;21.20;12.30;;;;;;;14.32;76.90;101876.72;5073886;28;20029;-66
2022/05/17 00:52:19;;;;;;;20.80;12.23;;;;;;;14.25;76.84;101848.47;5074321;28;20051;-66
2022/05/17 00:54:45;;;;;;;18.90;11.88;;;;;;;14.31;76.77;101863.94;5073699;28;21987;-67
2022/05/17 00:57:10;;;;;;;20.52;12.30;;;;;;;14.31;76.97;101869.50;5073335;28;20033;-67
2022/05/17 00:59:37;;;;;;;19.38;11.45;;;;;;;14.28;76.82;101867.34;5073738;28;20031;-67
2022/05/17 01:02:07;;;;;;;19.83;11.80;;;;;;;14.22;77.66;101876.09;5073605;28;20025;-66
2022/05/17 01:04:32;;;;;;;19.65;12.52;;;;;;;14.15;77.95;101863.41;5073197;28;20581;-68
2022/05/17 01:07:06;;;;;;;20.42;12.05;;;;;;;14.00;77.76;101835.84;5073084;28;20035;-68
2022/05/17 01:09:32;;;;;;;22.63;12.70;;;;;;;14.10;77.64;101871.03;5073387;28;20035;-68
2022/05/17 01:11:57;;;;;;;20.98;12.77;;;;;;;14.08;78.26;101862.97;5073254;28;20367;-67
2022/05/17 01:17:08;;;;;;;21.30;12.40;;;;;;;14.06;78.48;101867.19;5073313;28;20059;-65
2022/05/17 01:19:34;;;;;;;20.17;11.85;;;;;;;14.05;78.98;101863.59;5073259;28;20021;-66
2022/05/17 01:21:59;;;;;;;22.05;12.75;;;;;;;14.06;78.88;101861.63;5073078;28;20055;-66
2022/05/17 01:24:27;;;;;;;19.95;11.75;;;;;;;14.06;79.28;101856.91;5073169;28;20086;-66
2022/05/17 01:27:00;;;;;;;22.20;12.15;;;;;;;14.09;78.89;101849.88;5071216;28;20059;-67
2022/05/17 01:29:26;;;;;;;21.02;12.85;;;;;;;14.08;78.67;101849.03;5073588;28;20093;-67
2022/05/17 01:31:51;;;;;;;21.85;12.88;;;;;;;14.07;79.30;101844.63;5073677;28;20383;-67
2022/05/17 01:34:17;;;;;;;21.55;12.38;;;;;;;14.09;78.82;101849.88;5073559;28;20050;-68
2022/05/17 01:36:42;;;;;;;21.38;12.07;;;;;;;14.13;78.48;101859.25;5072176;28;20044;-67
2022/05/17 01:39:08;;;;;;;20.83;12.27;;;;;;;14.12;79.00;101860.41;5073023;28;20028;-67
2022/05/17 01:41:33;;;;;;;21.48;12.18;;;;;;;14.17;78.51;101857.53;5073135;28;20507;-67
2022/05/17 01:43:59;;;;;;;20.77;12.60;;;;;;;14.17;78.67;101855.56;5072039;28;20123;-66
2022/05/17 01:46:25;;;;;;;21.23;13.10;;;;;;;14.20;78.51;101865.28;5073832;28;20054;-67
2022/05/17 01:48:51;;;;;;;23.92;12.95;;;;;;;14.22;78.60;101860.19;5073011;28;20051;-66
2022/05/17 01:51:18;;;;;;;20.35;12.00;;;;;;;14.25;78.37;101856.81;5073421;28;20132;-67
2022/05/17 01:53:43;;;;;;;20.52;12.77;;;;;;;14.30;78.59;101858.69;5073563;28;20021;-67
2022/05/17 01:56:09;;;;;;;20.45;13.00;;;;;;;14.29;78.61;101852.31;5073334;28;20029;-67
2022/05/17 01:58:35;;;;;;;21.73;12.95;;;;;;;14.31;78.34;101860.34;5072661;28;20031;-66
2022/05/17 02:01:02;;;;;;;22.70;12.55;;;;;;;14.37;78.62;101866.63;5072247;28;20415;-66
2022/05/17 02:03:27;;;;;;;22.52;12.65;;;;;;;14.40;78.44;101863.25;5072997;28;20405;-66
2022/05/17 02:05:52;;;;;;;21.45;13.02;;;;;;;14.42;78.36;101861.81;5073068;28;20034;-65
2022/05/17 02:08:18;;;;;;;23.02;13.05;;;;;;;14.44;78.36;101862.31;5072699;28;20040;-65
2022/05/17 02:10:44;;;;;;;20.38;12.63;;;;;;;14.47;78.42;101863.66;5072629;28;20029;-66
2022/05/17 02:13:10;;;;;;;20.33;12.35;;;;;;;14.46;78.69;101865.59;5072448;28;20325;-66
2022/05/17 02:15:36;;;;;;;21.75;12.68;;;;;;;14.49;78.62;101866.97;5072600;28;20165;-66
2022/05/17 02:18:02;;;;;;;23.65;12.95;;;;;;;14.50;78.50;101863.88;5072392;28;20165;-66
2022/05/17 02:20:27;;;;;;;20.42;13.02;;;;;;;14.51;78.29;101864.69;5054390;28;20032;-65
2022/05/17 02:22:52;;;;;;;23.60;13.02;;;;;;;14.54;78.27;101866.03;5072009;28;20033;-66
2022/05/17 02:25:17;;;;;;;23.13;12.88;;;;;;;14.53;78.28;101859.63;5072546;28;20341;-65
2022/05/17 02:27:43;;;;;;;23.15;12.65;;;;;;;14.55;78.30;101867.69;5072012;28;20044;-65
2022/05/17 02:30:10;;;;;;;22.48;12.98;;;;;;;14.53;78.36;101872.75;5072756;28;20070;-64
2022/05/17 02:32:36;;;;;;;21.48;12.93;;;;;;;14.54;78.44;101869.63;5072120;28;20107;-64
2022/05/17 02:35:03;;;;;;;22.88;13.20;;;;;;;14.54;78.56;101874.41;5072095;28;20150;-65
2022/05/17 02:37:28;;;;;;;22.02;12.80;;;;;;;14.53;78.74;101864.41;5071848;28;20036;-64
2022/05/17 02:39:54;;;;;;;22.20;12.80;;;;;;;14.55;78.18;101867.69;5071642;28;20020;-65
2022/05/17 02:42:19;;;;;;;21.60;13.18;;;;;;;14.54;78.27;101875.22;5071892;28;20036;-65
2022/05/17 02:44:46;;;;;;;22.77;13.40;;;;;;;14.53;78.25;101869.97;5071775;28;20369;-65
2022/05/17 02:47:11;;;;;;;21.73;12.75;;;;;;;14.52;78.63;101877.47;5071703;28;20068;-65
2022/05/17 02:49:40;;;;;;;23.10;13.73;;;;;;;14.53;78.95;101864.41;5071644;28;20072;-66
2022/05/17 02:52:06;;;;;;;21.70;13.25;;;;;;;14.53;79.18;101881.09;5071682;28;20059;-65
2022/05/17 02:54:32;;;;;;;19.88;12.93;;;;;;;14.50;79.33;101879.72;5071465;28;20028;-66
2022/05/17 02:56:57;;;;;;;21.13;13.20;;;;;;;14.48;79.06;101870.88;5070415;28;20119;-65
2022/05/17 02:59:22;;;;;;;22.70;13.13;;;;;;;14.46;79.09;101882.31;5070427;28;20060;-65
2022/05/17 03:01:48;;;;;;;20.70;12.60;;;;;;;14.44;79.04;101881.81;5072130;28;20031;-66
2022/05/17 03:04:13;;;;;;;23.52;12.55;;;;;;;14.42;79.07;101886.00;5071881;28;20075;-66
2022/05/17 03:06:43;;;;;;;21.90;13.07;;;;;;;14.39;79.10;101875.50;5071419;28;20033;-65
2022/05/17 03:09:09;;;;;;;20.63;13.05;;;;;;;14.35;79.25;101897.56;5071227;28;20061;-66
2022/05/17 03:11:35;;;;;;;22.98;12.90;;;;;;;14.28;79.34;101886.00;5071227;28;20089;-66
2022/05/17 03:14:01;;;;;;;23.13;13.48;;;;;;;14.23;80.22;101883.31;5070958;28;20313;-67
2022/05/17 03:16:30;;;;;;;22.13;12.85;;;;;;;14.19;79.93;101885.88;5071021;28;20054;-67
2022/05/17 03:18:57;;;;;;;22.02;13.07;;;;;;;14.02;80.75;101870.59;5071297;28;20039;-67
2022/05/17 03:21:22;;;;;;;23.00;13.45;;;;;;;14.07;80.53;101882.75;5071015;28;20024;-67
2022/05/17 03:23:47;;;;;;;21.85;13.05;;;;;;;14.06;81.29;101889.44;5071073;28;20032;-66
2022/05/17 03:26:12;;;;;;;21.75;13.02;;;;;;;14.00;81.49;101886.75;5070976;28;20056;-65
2022/05/17 03:28:38;;;;;;;21.63;13.23;;;;;;;14.00;81.42;101878.41;5069963;28;20399;-66
2022/05/17 03:31:07;;;;;;;21.15;13.50;;;;;;;14.00;81.36;101883.13;5071085;28;20031;-65
2022/05/17 03:33:33;;;;;;;23.02;13.25;;;;;;;13.94;81.92;101881.56;5071625;28;20135;-65
2022/05/17 03:35:58;;;;;;;22.70;14.15;;;;;;;13.92;81.82;101881.06;5071448;28;20111;-65
2022/05/17 03:38:23;;;;;;;22.13;13.15;;;;;;;13.92;82.14;101886.63;5071344;28;20150;-65
2022/05/17 03:40:50;;;;;;;22.05;14.35;;;;;;;13.89;82.43;101883.31;5071216;28;20039;-66
2022/05/17 03:43:16;;;;;;;21.67;14.45;;;;;;;13.87;82.25;101882.81;5071658;28;20036;-66
2022/05/17 03:45:41;;;;;;;22.45;14.00;;;;;;;13.87;82.50;101879.19;5071474;28;20043;-67
2022/05/17 03:48:07;;;;;;;23.70;13.85;;;;;;;13.85;82.23;101890.63;5070215;28;20021;-66
2022/05/17 03:50:32;;;;;;;21.35;13.65;;;;;;;13.84;82.73;101880.63;5071753;28;20475;-66
2022/05/17 03:53:00;;;;;;;21.80;13.65;;;;;;;13.77;82.49;101874.63;5075109;28;20031;-66
2022/05/17 03:55:26;;;;;;;22.65;14.25;;;;;;;13.86;82.63;101888.66;5074950;28;20444;-66
2022/05/17 03:57:51;;;;;;;21.35;13.63;;;;;;;13.87;82.84;101891.16;5074874;28;20108;-67
2022/05/17 04:00:17;;;;;;;21.52;13.27;;;;;;;13.86;82.52;101883.94;5074885;28;20107;-66
2022/05/17 04:02:42;;;;;;;21.92;13.85;;;;;;;13.91;82.79;101887.75;5074212;28;20414;-65
2022/05/17 04:05:09;;;;;;;22.25;13.98;;;;;;;13.95;82.46;101886.81;5074823;28;20035;-65
2022/05/17 04:07:35;;;;;;;21.92;13.70;;;;;;;13.94;82.75;101887.16;5073079;28;20029;-65
2022/05/17 04:10:00;;;;;;;21.65;13.70;;;;;;;13.94;82.28;101879.63;5074624;28;20047;-66
2022/05/17 04:12:25;;;;;;;23.88;14.70;;;;;;;14.01;82.62;101885.63;5074231;28;20464;-65
2022/05/17 04:14:53;;;;;;;22.02;13.80;;;;;;;13.94;82.02;101887.16;5074958;28;20039;-66
2022/05/17 04:17:19;;;;;;;23.10;13.45;;;;;;;14.04;82.26;101892.53;5074540;28;20032;-65
2022/05/17 04:19:44;;;;;;;21.35;13.88;;;;;;;14.09;82.35;101895.22;5073411;28;20036;-64
2022/05/17 04:22:11;;;;;;;22.95;14.00;;;;;;;14.09;82.33;101895.22;5073487;28;20478;-64
2022/05/17 04:24:37;;;;;;;24.42;13.68;;;;;;;14.11;82.69;101906.88;5073535;28;20024;-66
2022/05/17 04:27:03;;;;;;;23.02;14.20;;;;;;;14.16;82.08;101906.81;5074686;28;20185;-64
2022/05/17 04:29:29;;;;;;;22.85;14.75;;;;;;;14.16;82.21;101901.25;5074999;28;20443;-66
2022/05/17 04:31:54;;;;;;;22.95;14.38;;;;;;;14.20;82.38;101907.03;5074985;28;20359;-64
2022/05/17 04:34:20;;;;;;;24.33;14.40;;;;;;;14.22;82.29;101904.72;5074236;28;20020;-64
2022/05/17 04:36:52;;;;;;;24.17;14.07;;;;;;;14.23;82.30;101908.34;5056326;28;20063;-63
2022/05/17 04:39:18;;;;;;;23.23;14.73;;;;;;;14.30;82.18;101911.56;5073238;28;20056;-65
2022/05/17 04:41:43;;;;;;;25.00;14.82;;;;;;;14.34;82.43;101907.88;5073617;28;20645;-66
2022/05/17 04:44:09;;;;;;;23.52;14.90;;;;;;;14.39;82.30;101906.13;5074615;28;20021;-66
2022/05/17 04:46:34;;;;;;;23.63;14.70;;;;;;;14.45;81.97;101916.84;5074056;28;20021;-65
2022/05/17 04:49:00;;;;;;;23.27;13.80;;;;;;;14.48;82.05;101924.59;5074959;28;20028;-65
2022/05/17 04:51:25;;;;;;;23.70;14.93;;;;;;;14.55;81.74;101917.81;5074281;28;20162;-64
2022/05/17 04:53:50;;;;;;;24.25;14.00;;;;;;;14.59;81.91;101911.31;5073907;28;20024;-66
2022/05/17 04:56:15;;;;;;;21.33;14.00;;;;;;;14.69;81.49;101904.75;5073898;28;20108;-66
2022/05/17 04:58:43;;;;;;;23.83;13.90;;;;;;;14.74;81.31;101912.19;5074129;28;20348;-66
2022/05/17 05:01:08;;;;;;;24.77;14.57;;;;;;;14.79;80.81;101915.69;5073427;28;20029;-66
2022/05/17 05:03:33;;;;;;;21.35;14.10;;;;;;;14.78;80.90;101910.44;5072184;28;20044;-66
2022/05/17 05:05:59;;;;;;;23.05;13.88;;;;;;;14.88;80.52;101921.34;5073311;28;20028;-66
2022/05/17 05:08:24;;;;;;;24.35;14.88;;;;;;;14.92;80.79;101921.59;5073788;28;20464;-66
2022/05/17 05:10:49;;;;;;;22.65;14.07;;;;;;;14.95;80.71;101919.00;5073801;28;20020;-67
2022/05/17 05:13:17;;;;;;;23.40;13.95;;;;;;;14.96;80.36;101917.88;5073686;28;20097;-67
2022/05/17 05:15:42;;;;;;;23.23;13.85;;;;;;;15.04;80.09;101921.06;5072180;28;20111;-67
2022/05/17 05:18:07;;;;;;;22.05;13.85;;;;;;;15.11;79.88;101938.19;5073605;28;20108;-67
2022/05/17 05:20:34;;;;;;;23.90;14.50;;;;;;;15.10;80.26;101925.38;5073590;28;20104;-68
2022/05/17 05:23:00;;;;;;;22.50;13.73;;;;;;;15.15;79.58;101928.09;5073649;28;20025;-67
2022/05/17 05:25:25;;;;;;;22.95;14.32;;;;;;;15.24;79.52;101937.38;5073575;28;20082;-66
2022/05/17 05:27:50;;;;;;;23.42;14.00;;;;;;;15.35;79.32;101942.72;5073489;28;20441;-66
2022/05/17 05:30:18;;;;;;;24.65;14.48;;;;;;;15.41;78.89;101939.47;5073562;28;20024;-66
2022/05/17 05:32:44;;;;;;;22.55;14.25;;;;;;;15.49;77.93;101945.50;5073235;28;20460;-67
2022/05/17 05:35:10;;;;;;;23.85;14.38;;;;;;;15.57;78.30;101936.38;5073397;28;20021;-66
2022/05/17 05:37:37;;;;;;;23.40;14.52;;;;;;;15.69;77.92;101944.19;5073673;28;20028;-66
2022/05/17 05:40:03;;;;;;;23.83;13.88;;;;;;;15.80;77.09;101941.97;5073416;28;20115;-66
2022/05/17 05:42:28;;;;;;;21.80;13.68;;;;;;;15.92;77.03;101947.84;5073006;28;20099;-65
2022/05/17 05:44:53;;;;;;;23.90;13.95;;;;;;;15.97;76.21;101939.34;5072429;28;20029;-65
2022/05/17 05:47:18;;;;;;;23.67;14.20;;;;;;;16.03;76.37;101948.44;5072775;28;20029;-65
2022/05/17 05:49:44;;;;;;;23.33;14.70;;;;;;;16.10;75.91;101951.63;5072812;28;20024;-64
2022/05/17 05:52:09;;;;;;;23.58;14.70;;;;;;;16.17;75.88;101948.38;5071336;28;20370;-64
2022/05/17 05:54:34;;;;;;;23.63;14.95;;;;;;;16.25;76.20;101955.16;5072460;28;20044;-65
2022/05/17 05:57:00;;;;;;;23.55;15.63;;;;;;;16.33;75.55;101959.97;5072362;28;20466;-65
2022/05/17 05:59:28;;;;;;;23.00;14.57;;;;;;;16.40;75.55;101959.53;5072672;28;20518;-64
2022/05/17 06:01:53;;;;;;;22.60;14.95;;;;;;;16.44;75.55;101955.78;5070878;28;20024;-65
2022/05/17 06:04:19;;;;;;;25.95;14.73;;;;;;;16.55;75.82;101953.53;5072691;28;20036;-64
2022/05/17 06:06:44;;;;;;;25.52;14.90;;;;;;;16.64;75.22;101964.75;5072155;28;20594;-66
2022/05/17 06:09:09;;;;;;;23.00;14.38;;;;;;;16.74;74.54;101958.91;5071249;28;20028;-65
2022/05/17 06:11:35;;;;;;;24.25;14.77;;;;;;;16.84;74.16;101960.56;5072469;28;20021;-65
2022/05/17 06:14:00;;;;;;;23.50;14.63;;;;;;;16.96;73.67;101972.00;5071422;28;20029;-60
2022/05/17 06:16:25;;;;;;;23.42;14.20;;;;;;;17.02;73.36;101966.25;5071527;28;20044;-67
2022/05/17 06:18:51;;;;;;;22.73;14.18;;;;;;;17.02;72.14;101964.31;5072435;28;20025;-67
2022/05/17 06:21:16;;;;;;;24.95;14.00;;;;;;;17.03;72.79;101965.97;5072651;28;20123;-66
2022/05/17 06:23:42;;;;;;;21.90;14.07;;;;;;;16.94;72.47;101971.50;5051157;28;20056;-65
2022/05/17 06:26:07;;;;;;;24.67;14.57;;;;;;;16.94;72.74;101970.69;5048986;28;20118;-67
2022/05/17 06:28:33;;;;;;;22.27;14.48;;;;;;;16.96;72.43;101979.56;5051263;28;20340;-65
2022/05/17 06:30:58;;;;;;;21.95;14.50;;;;;;;16.93;73.37;101975.44;5051051;28;20052;-66
2022/05/17 06:33:24;;;;;;;25.17;14.70;;;;;;;16.94;73.95;101974.31;5051223;28;20099;-66
2022/05/17 06:35:52;;;;;;;23.77;14.48;;;;;;;16.94;73.19;101979.88;5051082;28;20506;-65
2022/05/17 06:38:17;;;;;;;26.15;15.45;;;;;;;16.93;73.12;101983.84;5049509;28;20037;-66
2022/05/17 06:40:43;;;;;;;23.60;14.48;;;;;;;16.93;73.02;101983.84;5051417;28;20387;-67
2022/05/17 06:43:08;;;;;;;26.23;14.50;;;;;;;16.95;72.54;101987.13;5061547;28;20096;-66
2022/05/17 06:45:34;;;;;;;25.25;14.55;;;;;;;16.98;72.96;101986.50;5050744;28;20379;-66
2022/05/17 06:48:00;;;;;;;24.25;14.70;;;;;;;17.02;72.93;101992.25;5050815;28;20057;-67
2022/05/17 06:50:27;;;;;;;23.52;14.18;;;;;;;17.03;72.96;101998.66;5050775;28;20040;-66
2022/05/17 06:52:53;;;;;;;26.25;14.70;;;;;;;16.99;72.59;101995.69;5050991;28;20025;-66
2022/05/17 06:55:18;;;;;;;27.45;14.73;;;;;;;16.95;72.11;101992.72;5050878;28;20035;-67
2022/05/17 06:57:44;;;;;;;26.58;15.32;;;;;;;16.93;73.08;102000.59;5049450;28;20060;-65
2022/05/17 07:00:12;;;;;;;26.52;15.48;;;;;;;16.86;74.02;101985.44;5050984;28;20025;-65
2022/05/17 07:02:38;;;;;;;27.60;15.85;;;;;;;16.91;75.38;101996.44;5066379;28;20033;-66
2022/05/17 07:05:05;;;;;;;26.98;15.77;;;;;;;16.94;77.18;102004.25;5050892;28;20029;-66
2022/05/17 07:07:30;;;;;;;23.48;15.52;;;;;;;16.96;77.44;101999.97;5051216;28;20044;-66
2022/05/17 07:15:46;;;;;;;24.85;16.15;;;;;;;16.95;78.12;101991.91;5047654;28;19924;-66
2022/05/17 07:18:14;;;;;;;25.95;16.45;;;;;;;16.97;77.56;102007.22;5048192;28;20106;-66
2022/05/17 07:20:40;;;;;;;27.10;16.10;;;;;;;17.02;78.12;102006.25;5049160;28;20048;-65
2022/05/17 07:23:06;;;;;;;24.38;16.58;;;;;;;17.09;78.27;102005.78;5050831;28;20052;-66
2022/05/17 07:25:33;;;;;;;25.15;15.80;;;;;;;17.18;77.64;102011.41;5051234;28;20033;-66
2022/05/17 07:28:00;;;;;;;24.05;16.05;;;;;;;17.15;78.35;102001.69;5054668;28;20508;-66
2022/05/17 07:30:25;;;;;;;26.48;15.88;;;;;;;17.24;76.64;102018.50;5054407;28;20109;-66
2022/05/17 07:32:51;;;;;;;24.95;16.33;;;;;;;17.27;76.85;102023.44;5053756;28;20108;-66
2022/05/17 07:35:16;;;;;;;25.52;16.15;;;;;;;17.28;77.89;102016.69;5053211;28;20102;-65
2022/05/17 07:37:42;;;;;;;25.58;17.17;;;;;;;17.32;78.24;102023.31;5053592;28;20106;-66
2022/05/17 07:40:08;;;;;;;26.38;16.98;;;;;;;17.30;77.86;102031.19;5052959;28;20024;-66
2022/05/17 07:42:33;;;;;;;25.77;16.45;;;;;;;17.26;79.48;102018.97;5054306;28;20029;-66
2022/05/17 07:44:58;;;;;;;22.90;15.75;;;;;;;17.29;79.12;102021.97;5054016;28;20095;-66
2022/05/17 07:47:24;;;;;;;27.67;16.30;;;;;;;17.32;79.43;102017.72;5053923;28;20423;-67
2022/05/17 07:49:49;;;;;;;26.67;16.17;;;;;;;17.38;80.06;102001.59;5054295;28;20033;-65
2022/05/17 07:52:15;;;;;;;24.25;16.20;;;;;;;17.40;79.61;101993.69;5054011;28;20385;-65
2022/05/17 07:54:41;;;;;;;26.50;16.23;;;;;;;17.48;80.88;101998.47;5053382;28;20041;-65
2022/05/17 07:57:07;;;;;;;25.17;17.00;;;;;;;17.49;79.94;102014.13;5054337;28;20042;-66
2022/05/17 07:59:33;;;;;;;25.83;16.77;;;;;;;17.43;79.73;102013.44;5053916;28;20041;-66
2022/05/17 08:01:58;;;;;;;25.15;17.45;;;;;;;17.41;80.24;102012.13;5053842;28;20079;-67
2022/05/17 08:04:24;;;;;;;25.20;17.52;;;;;;;17.45;80.78;102010.34;5054013;28;20432;-68
2022/05/17 08:06:52;;;;;;;26.20;17.45;;;;;;;17.48;81.47;102011.66;5053704;28;20029;-67
2022/05/17 08:09:17;;;;;;;26.80;17.38;;;;;;;17.49;80.43;102014.13;5053423;28;20476;-66
2022/05/17 08:11:44;;;;;;;27.63;18.05;;;;;;;17.61;82.20;102010.72;5068784;28;20086;-66
2022/05/17 08:14:10;;;;;;;27.88;18.30;;;;;;;17.75;81.17;102018.97;5053333;28;20021;-66
2022/05/17 08:16:35;;;;;;;25.25;17.95;;;;;;;17.86;80.92;102023.06;5053356;28;20468;-65
2022/05/17 08:19:01;;;;;;;25.30;17.35;;;;;;;17.97;78.88;102022.78;5046648;28;20136;-67
2022/05/17 08:21:26;;;;;;;25.15;17.65;;;;;;;18.11;80.27;102028.22;5072883;28;20033;-65
2022/05/17 08:23:51;;;;;;;26.52;16.75;;;;;;;18.23;78.49;102020.00;5072835;28;20027;-66
2022/05/17 08:29:01;;;;;;;;;;;;;;;18.53;76.41;102020.94;5074259;28;20499;-66
2022/05/17 08:31:26;;;;;;;22.60;14.10;;;;;;;18.49;73.54;102017.19;5072951;28;19916;-66
2022/05/17 08:33:51;;;;;;;21.42;13.20;;;;;;;18.47;72.39;102025.09;5071148;28;20302;-68
2022/05/17 08:36:17;;;;;;;20.65;11.85;;;;;;;18.45;71.17;102021.78;5072855;28;20020;-67
2022/05/17 08:38:46;;;;;;;19.95;11.80;;;;;;;18.35;70.08;102008.13;5072939;28;20044;-68
2022/05/17 08:41:26;;;;;;;22.02;11.90;;;;;;;18.42;71.80;102018.84;5071523;28;20383;-67
2022/05/17 08:43:53;;;;;;;22.95;12.20;;;;;;;18.45;73.03;102013.38;5072919;28;20038;-67
2022/05/17 08:46:50;;;;;;;20.40;12.20;;;;;;;18.33;73.56;102030.88;5072948;28;20062;-67
2022/05/17 08:49:27;;;;;;;19.85;12.00;;;;;;;18.23;71.38;102034.81;5073431;28;20032;-66
2022/05/17 08:52:09;;;;;;;20.85;11.85;;;;;;;18.11;70.77;102033.81;5072908;28;20090;-67
2022/05/17 08:54:36;;;;;;;22.05;11.73;;;;;;;17.98;70.65;102028.09;5073202;28;20475;-67
2022/05/17 08:57:13;;;;;;;20.60;12.25;;;;;;;18.05;70.36;102045.22;5072522;28;20419;-67
2022/05/17 08:59:41;;;;;;;23.60;12.43;;;;;;;18.01;72.18;102032.19;5065651;28;20050;-67
2022/05/17 09:02:18;;;;;;;22.58;11.95;;;;;;;17.97;73.00;102012.44;5071055;28;20020;-67
2022/05/17 09:04:55;;;;;;;19.48;11.80;;;;;;;18.04;72.23;102020.34;5071397;28;20044;-68
2022/05/17 09:07:25;;;;;;;20.60;12.48;;;;;;;18.01;73.08;101993.00;5071479;28;20377;-67
2022/05/17 09:09:58;;;;;;;22.80;11.65;;;;;;;18.14;73.01;102006.00;5071218;28;20124;-67
2022/05/17 09:12:41;;;;;;;21.25;11.52;;;;;;;18.27;72.86;102000.56;5071143;28;20037;-67
2022/05/17 09:15:09;;;;;;;21.05;11.68;;;;;;;18.40;71.35;102000.38;5071057;28;20033;-68
2022/05/17 09:17:35;;;;;;;21.45;11.55;;;;;;;18.56;72.36;101997.06;5070980;28;20089;-67
2022/05/17 09:20:01;;;;;;;21.30;11.40;;;;;;;18.71;72.06;102002.13;5070621;28;20020;-66
2022/05/17 09:22:26;;;;;;;19.10;11.52;;;;;;;18.81;69.64;101998.13;5070466;28;20028;-66
2022/05/17 09:25:00;;;;;;;20.33;11.50;;;;;;;18.98;70.33;102005.69;5070643;28;20028;-67
2022/05/17 09:27:29;;;;;;;;;;;;;;;19.24;70.14;101989.91;5070935;28;20040;-66
2022/05/17 09:30:12;;;;;;;21.25;12.60;;;;;;;19.32;70.04;102001.06;5068155;28;19916;-67
2022/05/17 09:32:43;;;;;;;22.37;13.63;;;;;;;19.48;70.25;101992.09;5070526;28;20020;-66
2022/05/17 09:35:13;;;;;;;22.85;13.30;;;;;;;19.53;68.09;101989.06;5071427;28;20039;-66
2022/05/17 09:37:42;;;;;;;20.88;12.80;;;;;;;19.60;68.37;101982.94;5071907;28;20107;-66
2022/05/17 09:40:14;;;;;;;20.83;12.88;;;;;;;19.62;68.63;101984.22;5070298;28;20027;-65
2022/05/17 09:42:53;;;;;;;19.90;12.40;;;;;;;19.65;67.62;101982.72;5071198;28;20051;-66
2022/05/17 09:45:20;;;;;;;22.00;12.90;;;;;;;19.67;67.56;101966.34;5071504;28;20074;-66
2022/05/17 09:47:59;;;;;;;22.65;13.30;;;;;;;19.93;67.63;101987.84;5069780;28;20028;-66
2022/05/17 09:53:17;;;;;;;19.90;12.32;;;;;;;19.99;65.64;101982.81;5071182;28;20058;-68
2022/05/17 09:55:49;;;;;;;20.67;11.95;;;;;;;20.03;65.75;101973.34;5071341;28;20470;-66
2022/05/17 09:58:33;;;;;;;21.85;11.77;;;;;;;20.29;65.98;101963.03;5071641;28;20028;-64
2022/05/17 10:01:00;;;;;;;;;;;;;;;20.57;65.88;101975.31;5071396;28;20033;-65
2022/05/17 10:03:34;;;;;;;19.33;11.13;;;;;;;20.79;63.91;101980.88;5071214;28;20025;-67
2022/05/17 10:06:08;;;;;;;21.17;10.68;;;;;;;20.99;63.38;101965.91;5070760;28;20044;-66
2022/05/17 10:08:41;;;;;;;20.50;10.48;;;;;;;21.33;62.10;101963.81;5069099;28;20059;-65
2022/05/17 10:11:15;;;;;;;19.95;11.00;;;;;;;21.65;60.64;101977.28;5070099;28;20024;-65
2022/05/17 10:13:46;;;;;;;20.48;10.82;;;;;;;21.79;59.45;101972.06;5068986;28;20059;-65
2022/05/17 10:16:17;;;;;;;19.70;10.10;;;;;;;21.87;57.99;101964.66;5063637;28;20265;-65
2022/05/17 10:18:48;;;;;;;21.40;11.60;;;;;;;22.01;57.25;101961.44;5070887;28;20111;-66
2022/05/17 10:21:23;;;;;;;19.55;10.50;;;;;;;22.26;57.76;101950.88;5069822;28;20131;-67
2022/05/17 10:23:57;;;;;;;21.33;10.90;;;;;;;22.62;57.89;101950.22;5071105;28;20086;-67
2022/05/17 10:26:32;;;;;;;20.67;10.65;;;;;;;22.74;56.39;101950.94;5071369;28;20733;-66
2022/05/17 10:29:08;;;;;;;21.58;11.57;;;;;;;22.65;54.15;101921.31;5070635;28;20036;-67
2022/05/17 10:32:00;;;;;;;19.85;10.88;;;;;;;22.80;54.79;101947.88;5070941;28;20032;-63
2022/05/17 10:34:46;;;;;;;20.58;10.93;;;;;;;22.79;55.08;101951.88;5069631;28;20036;-63
2022/05/17 10:37:20;;;;;;;19.67;11.23;;;;;;;22.65;52.79;101938.22;5068122;28;20035;-62
2022/05/17 10:39:54;;;;;;;19.80;11.00;;;;;;;22.72;54.34;101944.03;5066114;28;20102;-63
2022/05/17 10:42:20;;;;;;;19.33;11.23;;;;;;;22.84;53.00;101938.31;5069102;28;20025;-63
2022/05/17 10:44:53;;;;;;;19.13;11.73;;;;;;;22.64;53.42;101917.66;5068919;28;20032;-63
2022/05/17 10:47:46;;;;;;;19.83;11.73;;;;;;;22.78;54.47;101945.41;5066342;28;20208;-62
2022/05/17 10:50:24;;;;;;;21.80;12.47;;;;;;;22.63;54.30;101940.59;5067274;28;20139;-63
2022/05/17 10:52:58;;;;;;;21.80;12.75;;;;;;;22.47;53.96;101941.41;5051177;28;20032;-63
2022/05/17 10:55:31;;;;;;;21.73;12.43;;;;;;;22.42;53.53;101936.84;5068919;28;20044;-63
2022/05/17 10:58:16;;;;;;;23.05;12.63;;;;;;;22.44;54.74;101934.47;5069580;28;20378;-62
2022/05/17 11:00:54;;;;;;;21.98;13.10;;;;;;;22.36;54.16;101917.72;5071909;28;20060;-62
2022/05/17 11:03:50;;;;;;;21.88;13.40;;;;;;;22.53;54.74;101937.13;5057882;28;20060;-63
2022/05/17 11:06:34;;;;;;;20.88;13.07;;;;;;;22.48;54.25;101937.41;5073836;28;20765;-62
2022/05/17 11:09:32;;;;;;;;;;;;;;;22.63;55.07;101937.75;5074006;28;20082;-64
2022/05/17 11:12:10;;;;;;;22.70;13.27;;;;;;;22.58;54.89;101925.56;5061843;28;19912;-62
2022/05/17 11:14:57;;;;;;;21.52;14.10;;;;;;;22.62;55.08;101905.09;5073426;28;20028;-63
2022/05/17 11:17:28;;;;;;;22.13;14.00;;;;;;;22.85;54.54;101922.19;5073194;28;20190;-62
2022/05/17 11:20:07;;;;;;;23.92;13.80;;;;;;;23.00;54.52;101909.25;5072781;28;20029;-62
2022/05/17 11:22:32;;;;;;;25.08;14.57;;;;;;;23.20;54.29;101910.16;5073074;28;20162;-63
2022/05/17 11:25:37;;;;;;;23.73;15.33;;;;;;;23.40;54.63;101913.00;5073153;28;20147;-62
2022/05/17 11:28:33;;;;;;;22.13;14.20;;;;;;;23.53;54.00;101906.88;5072641;28;20374;-63
2022/05/17 11:31:18;;;;;;;22.88;15.32;;;;;;;23.44;53.70;101878.03;5072930;28;20043;-63